Stations météo

réclame
Mon MeteoGroup
Trollenhagen, Allemagne (10281): Température de l'air & dewpoint: 12.11.2018 05:00:00 - 18.11.2018 05:00:00 (CET)Trollenhagen, Allemagne (10281): Température de l'air 5cm & Température de l'air -5cm: 12.11.2018 05:00:00 - 18.11.2018 05:00:00 (CET)Trollenhagen, Allemagne (10281): Température de l'air -20cm & Température de l'air -100cm: 12.11.2018 05:00:00 - 18.11.2018 05:00:00 (CET)Trollenhagen, Allemagne (10281): Vitesse du vent & gusts: 12.11.2018 05:00:00 - 18.11.2018 05:00:00 (CET)Trollenhagen, Allemagne (10281): Direction du vent: 12.11.2018 05:00:00 - 18.11.2018 05:00:00 (CET)Trollenhagen, Allemagne (10281): reduced air pressure: 12.11.2018 05:00:00 - 18.11.2018 05:00:00 (CET)Trollenhagen, Allemagne (10281): Ensoleillement: 12.11.2018 05:00:00 - 18.11.2018 05:00:00 (CET)Trollenhagen, Allemagne (10281): Quantités de précipitations: 12.11.2018 05:00:00 - 18.11.2018 05:00:00 (CET)
Date & Time tt [°C] td [°C] tt 5cm [°C] tt -5cm [°C] tt -20cm [°C] tt -100cm [°C] ff [km/h] ff [knt] fx [km/h] fx [knt] dd ppp [hPa] sd [min] rr [mm]
18.11.2018 05:00:00 -2,9 -3,2 -5,4 -1,0 2,5 9,6 5 3 6 4 N 1036,1 0 0,0
18.11.2018 04:00:00 -2,6 -2,6 -4,0 -1,0 2,7 9,6 3 2 11 6 ESE 1036,6 0 0,0
18.11.2018 03:00:00 -3,2 -3,5 -5,4 -0,9 2,8 9,6 8 4 11 6 N 1037,4 0 0,0
18.11.2018 02:00:00 -3,7 -4,0 -5,2 -0,7 2,9 9,7 10 5 11 6 N 1038,1 0 0,0
18.11.2018 01:00:00 -2,4 -2,4 -4,7 -0,5 3,1 9,7 3 1 5 3 NNE 1038,4 0 0,0
18.11.2018 00:00:00 -2,2 -2,6 -4,5 -0,4 3,2 9,7 4 2 7 4 ENE 1038,4 0 0,0
17.11.2018 23:00:00 -0,2 -1,0 -3,9 -0,1 3,4 9,7 5 3 9 5 ESE 1038,9 0 0,0
17.11.2018 22:00:00 -0,9 -1,3 -3,9 0,1 3,5 9,7 8 5 9 5 E 1038,9 0 0,0
17.11.2018 21:00:00 0,2 -0,6 -3,2 0,3 3,7 9,8 5 3 9 5 ENE 1039,0 0 0,0
17.11.2018 20:00:00 0,6 -0,9 -4,0 0,5 3,9 9,8 7 4 13 7 ENE 1039,2 0 0,0
17.11.2018 19:00:00 1,5 -0,3 -2,0 0,9 4,1 9,8 10 6 13 7 ESE 1039,1 0 0,0
17.11.2018 18:00:00 0,6 -0,2 -1,5 1,1 4,3 9,8 13 7 17 9 ENE 1039,7 0 0,0
17.11.2018 17:00:00 1,2 -0,2 -0,9 1,8 4,5 9,8 11 6 16 9 NE 1039,5 0 0,0
17.11.2018 16:00:00 2,2 -0,2 0,6 2,8 4,5 9,9 15 8 18 10 ENE 1040,3 35 0,0
17.11.2018 15:00:00 4,6 0,1 4,6 3,7 4,3 9,9 13 7 20 11 E 1039,8 60 0,0
17.11.2018 14:00:00 4,8 0,2 5,2 4,2 3,9 9,9 17 9 21 12 E 1039,7 60 0,0
17.11.2018 13:00:00 4,9 1,0 5,9 4,1 3,5 9,9 13 7 20 11 E 1039,9 60 0,0
17.11.2018 12:00:00 3,8 0,7 4,1 2,8 3,3 9,9 15 8 24 13 ESE 1040,5 60 0,0
17.11.2018 11:00:00 2,7 0,3 3,5 0,2 3,4 9,9 14 8 21 11 ESE 1040,5 60 0,0
17.11.2018 10:00:00 1,1 -0,2 0,8 0,1 3,5 10,0 15 8 22 12 E 1040,4 60 0,0
17.11.2018 09:00:00 -0,3 -1,0 -0,7 -0,1 3,6 10,0 15 8 18 10 E 1040,6 31 0,0
17.11.2018 08:00:00 -1,7 -2,1 -2,7 0,0 3,8 10,0 14 7 18 10 E 1040,3 0 0,0
17.11.2018 07:00:00 -2,1 -2,6 -3,1 0,2 4,0 10,0 14 8 20 11 ENE 1040,1 0 0,0
17.11.2018 06:00:00 -1,7 -2,2 -3,0 0,4 4,2 10,0 14 7 19 11 ENE 1039,7 0 0,0
17.11.2018 05:00:00 0,0 -1,0 -1,2 0,6 4,3 10,0 16 9 20 11 E 1039,6 0 0,0
17.11.2018 04:00:00 0,0 -0,9 -1,4 0,8 4,6 10,0 15 8 19 11 E 1039,8 0 0,0
17.11.2018 03:00:00 0,5 -0,8 -1,3 1,1 4,8 10,1 10 6 22 12 E 1039,6 0 0,0
17.11.2018 02:00:00 1,5 -0,3 0,1 1,2 5,0 10,1 16 9 22 12 ESE 1039,2 0 0,0
17.11.2018 01:00:00 1,2 -0,8 -0,8 1,5 5,3 10,1 12 6 16 9 E 1039,2 0 0,0
17.11.2018 00:00:00 2,9 0,0 1,0 2,5 5,4 10,1 10 5 34 18 SE 1038,8 0 0,0
16.11.2018 23:00:00 4,2 0,6 3,7 3,5 5,5 10,1 21 11 32 18 SE 1038,4 0 0,0
16.11.2018 22:00:00 4,7 1,5 4,0 3,6 5,5 10,1 20 11 29 16 ESE 1038,1 0 0,0
16.11.2018 21:00:00 4,8 2,0 4,2 3,2 5,6 10,1 16 9 27 14 ESE 1038,1 0 0,0
16.11.2018 20:00:00 2,6 1,5 1,7 2,5 5,9 10,1 11 6 17 9 E 1038,2 0 0,0
16.11.2018 19:00:00 3,2 1,8 1,5 2,8 6,2 10,2 14 8 23 12 ESE 1037,3 0 0,0
16.11.2018 18:00:00 3,9 2,3 2,3 3,2 6,5 10,2 15 8 20 11 E 1037,2 0 0,0
16.11.2018 17:00:00 3,8 1,7 0,9 4,1 6,7 10,2 11 6 20 11 E 1037,2 0 0,0
16.11.2018 16:00:00 6,1 2,7 4,8 5,6 6,7 10,2 15 8 21 11 ESE 1036,7 36 0,0
16.11.2018 15:00:00 7,8 3,2 7,5 6,8 6,5 10,2 15 8 21 12 ESE 1036,4 60 0,0
16.11.2018 14:00:00 8,2 2,9 8,6 7,4 6,2 10,2 16 9 22 12 ESE 1036,4 60 0,0
16.11.2018 13:00:00 8,4 2,7 9,1 7,3 5,8 10,2 14 8 31 17 SE 1036,2 60 0,0
16.11.2018 12:00:00 8,1 1,9 8,4 6,4 5,4 10,2 20 11 37 20 SSE 1035,9 60 0,0
16.11.2018 11:00:00 7,2 2,3 7,6 5,0 5,1 10,2 17 9 29 16 SE 1036,4 60 0,0
16.11.2018 10:00:00 5,8 2,8 4,9 3,9 5,0 10,2 16 9 24 13 SE 1036,4 60 0,0
16.11.2018 09:00:00 3,9 2,2 3,6 2,1 5,1 10,3 13 7 20 11 SE 1036,2 37 0,0
16.11.2018 08:00:00 3,0 1,6 1,4 1,5 5,3 10,3 13 7 18 10 SE 1035,6 0 0,0
16.11.2018 07:00:00 2,9 1,3 1,0 1,7 5,5 10,3 8 5 19 10 SE 1035,0 0 0,0
16.11.2018 06:00:00 3,2 1,5 1,3 2,0 5,8 10,3 12 7 19 10 ESE 1034,6 0 0,0
16.11.2018 05:00:00 3,1 1,8 1,3 2,2 6,0 10,3 13 7 19 10 SE 1034,2 0 0,0
16.11.2018 04:00:00 2,9 1,9 1,4 2,6 6,2 10,3 12 6 21 11 ESE 1034,1 0 0,0
16.11.2018 03:00:00 4,2 2,3 2,7 3,0 6,4 10,3 18 10 24 13 ESE 1034,0 0 0,0
16.11.2018 02:00:00 4,5 2,7 2,7 3,3 6,7 10,3 12 6 20 11 ESE 1033,8 0 0,0
16.11.2018 01:00:00 4,7 2,9 3,0 3,6 6,9 10,3 13 7 21 12 ESE 1033,5 0 0,0
16.11.2018 00:00:00 5,2 3,5 3,6 4,0 7,1 10,3 15 8 23 12 ESE 1033,3 0 0,0
15.11.2018 23:00:00 5,8 3,8 4,1 4,4 7,3 10,3 15 8 27 15 SE 1032,9 0 0,0
15.11.2018 22:00:00 5,9 4,6 4,6 4,6 7,6 10,3 14 7 25 13 SE 1032,6 0 0,0
15.11.2018 21:00:00 5,8 4,7 4,4 4,9 7,8 10,3 16 8 25 13 ESE 1032,3 0 0,0
15.11.2018 20:00:00 5,9 4,5 4,4 5,1 8,1 10,3 13 7 20 11 ESE 1032,1 0 0,0
15.11.2018 19:00:00 5,8 5,0 4,6 5,7 8,4 10,3 14 8 20 11 ESE 1031,7 0 0,0
15.11.2018 18:00:00 6,4 5,5 5,0 6,3 8,7 10,3 13 7 17 9 ESE 1031,4 0 0,0
15.11.2018 17:00:00 7,3 6,5 5,8 7,2 8,9 10,3 12 6 16 9 ESE 1031,1 0 0,0
15.11.2018 16:00:00 8,4 6,5 7,1 8,3 9,0 10,3 10 6 20 11 SE 1031,2 16 0,0
15.11.2018 15:00:00 9,7 6,2 8,8 9,7 8,9 10,3 13 7 25 14 SE 1030,9 0 0,0
15.11.2018 14:00:00 10,5 6,5 10,9 11,0 8,6 10,3 15 8 31 17 SE 1030,6 46 0,0
15.11.2018 13:00:00 10,7 7,0 12,4 10,7 8,2 10,3 20 11 27 14 ESE 1030,7 53 0,0
15.11.2018 12:00:00 9,7 6,4 10,0 9,5 7,9 10,3 14 8 22 12 SE 1031,0 0 0,0
15.11.2018 11:00:00 9,1 6,5 9,4 8,8 7,7 10,3 10 5 15 8 SE 1031,1 0 0,0
15.11.2018 10:00:00 8,0 6,7 8,3 7,8 7,6 10,4 10 6 15 8 SE 1031,0 0 0,0
15.11.2018 09:00:00 7,2 6,4 7,2 6,8 7,5 10,4 9 5 14 7 SE 1030,7 0 0,0
15.11.2018 08:00:00 6,9 6,3 6,6 6,5 7,5 10,4 10 5 14 8 SE 1030,5 0 0,0
15.11.2018 07:00:00 6,7 6,2 6,3 6,4 7,5 10,4 9 5 11 6 SE 1030,0 0 0,0
15.11.2018 06:00:00 6,8 6,3 6,2 6,4 7,6 10,4 8 4 16 8 SE 1029,7 0 0,0
15.11.2018 05:00:00 6,8 6,3 6,3 6,3 7,6 10,4 9 5 12 7 SE 1029,8 0 0,0
15.11.2018 04:00:00 6,9 6,3 6,4 6,2 7,6 10,4 6 3 12 6 S 1029,7 0 0,0
15.11.2018 03:00:00 6,9 6,4 6,3 6,0 7,7 10,4 8 5 12 6 SSE 1029,7 0 0,0
15.11.2018 02:00:00 6,9 6,5 5,7 5,8 7,9 10,4 7 4 14 7 SSW 1029,8 0 0,0
15.11.2018 01:00:00 6,9 6,5 5,7 6,1 8,0 10,4 7 4 13 7 S 1029,8 0 0,0
15.11.2018 00:00:00 7,1 6,6 6,2 6,5 8,1 10,4 7 4 16 8 S 1029,8 0 0,0
14.11.2018 23:00:00 7,1 6,5 6,5 6,6 8,2 10,4 7 4 11 6 S 1029,8 0 0,0
14.11.2018 22:00:00 7,0 6,4 6,3 6,6 8,3 10,4 6 4 14 7 SSW 1029,7 0 0,0
14.11.2018 21:00:00 7,1 6,5 6,3 6,6 8,4 10,4 7 4 14 7 S 1029,7 0 0,0
14.11.2018 20:00:00 7,6 6,6 6,6 6,7 8,6 10,4 11 6 14 8 SW 1029,6 0 0,0
14.11.2018 19:00:00 7,1 6,4 6,0 6,9 8,8 10,4 4 2 16 9 S 1029,3 0 0,0
14.11.2018 18:00:00 7,8 6,5 6,7 7,3 9,0 10,4 13 7 19 10 SW 1029,4 0 0,0
14.11.2018 17:00:00 7,6 6,4 6,7 7,7 9,2 10,4 10 6 16 9 SW 1029,5 0 0,0
14.11.2018 16:00:00 8,2 6,4 7,4 8,5 9,3 10,4 11 6 19 10 SW 1029,4 0 0,0
14.11.2018 15:00:00 8,4 6,6 8,2 9,4 9,3 10,4 17 9 25 13 WSW 1029,0 0 0,0
14.11.2018 14:00:00 9,2 7,0 9,2 10,1 9,1 10,4 17 9 24 13 WSW 1028,8 0 0,0
14.11.2018 13:00:00 9,7 7,4 10,0 10,4 8,9 10,4 12 7 23 12 SW 1029,1 15 0,0
14.11.2018 12:00:00 9,5 7,5 9,9 9,8 8,6 10,4 16 8 26 14 W 1028,9 23 0,0
14.11.2018 11:00:00 9,8 7,8 10,8 9,6 8,5 10,4 14 8 20 11 WSW 1028,5 11 0,0
14.11.2018 10:00:00 8,8 7,4 8,8 8,4 8,4 10,4 14 8 19 10 WSW 1028,2 0 0,0
14.11.2018 09:00:00 8,4 7,3 8,1 7,9 8,4 10,4 13 7 20 11 WSW 1027,8 0 0,0
14.11.2018 08:00:00 8,4 7,2 7,9 7,6 8,4 10,4 16 9 24 13 W 1027,3 0 0,0
14.11.2018 07:00:00 8,7 7,2 8,1 7,6 8,4 10,4 17 9 26 14 WSW 1026,6 0 0,0
14.11.2018 06:00:00 8,7 7,2 8,0 7,7 8,4 10,4 16 9 27 14 WSW 1026,2 0 0,0
14.11.2018 05:00:00 8,9 7,2 8,0 7,6 8,4 10,4 21 11 28 15 WSW 1026,1 0 0,0
14.11.2018 04:00:00 8,5 7,4 7,7 7,6 8,5 10,4 20 11 30 16 WSW 1025,9 0 0,0
14.11.2018 03:00:00 8,7 7,0 8,0 7,5 8,5 10,4 20 11 31 17 WSW 1025,5 0 0,0
14.11.2018 02:00:00 8,5 6,8 7,8 7,4 8,6 10,4 20 11 35 19 WSW 1025,3 0 0,0
14.11.2018 01:00:00 9,0 6,8 8,2 7,4 8,7 10,3 21 11 31 17 WSW 1024,6 0 0,0
14.11.2018 00:00:00 8,1 6,8 6,9 7,3 8,8 10,3 18 10 27 14 SW 1024,2 0 0,0
13.11.2018 23:00:00 8,5 7,0 7,9 7,3 8,9 10,3 18 10 27 15 SW 1023,9 0 0,0
13.11.2018 22:00:00 8,5 7,2 7,0 7,7 9,1 10,3 18 10 27 15 SW 1023,5 0 0,1
13.11.2018 21:00:00 8,8 7,3 8,0 7,6 9,2 10,3 16 9 24 13 SW 1023,2 0 0,0
13.11.2018 20:00:00 8,5 7,0 7,5 7,8 9,4 10,3 11 6 20 11 SW 1023,0 0 0,0
13.11.2018 19:00:00 9,1 6,6 7,9 8,6 9,5 10,3 19 10 40 21 W 1022,7 0 0,1
13.11.2018 18:00:00 10,0 8,7 9,1 8,7 9,7 10,3 16 9 29 15 WSW 1021,8 0 0,0
13.11.2018 17:00:00 10,1 9,6 8,9 9,0 9,8 10,3 11 6 21 11 SSW 1021,2 0 0,0
13.11.2018 16:00:00 10,5 9,5 9,7 10,1 9,7 10,3 13 7 23 12 SSW 1020,9 0 1,2
13.11.2018 15:00:00 10,5 9,7 9,9 10,6 9,7 10,3 11 6 20 11 SSW 1020,7 0 0,1
13.11.2018 14:00:00 10,2 9,6 10,0 10,6 9,5 10,3 11 6 23 12 SSW 1020,5 0 0,0
13.11.2018 13:00:00 10,1 9,7 10,0 10,1 9,4 10,3 11 6 18 10 SSW 1020,4 0 0,7
13.11.2018 12:00:00 10,1 9,9 9,7 9,9 9,4 10,3 9 5 20 11 SSW 1020,5 0 0,7
13.11.2018 11:00:00 10,1 9,8 9,9 9,8 9,3 10,3 11 6 18 10 SW 1020,5 0 0,3
13.11.2018 10:00:00 10,0 9,8 9,7 9,3 9,2 10,3 10 5 16 9 SW 1020,3 0 0,3
13.11.2018 09:00:00 9,7 9,5 9,2 9,0 9,3 10,3 9 5 12 7 WSW 1019,7 0 0,0
13.11.2018 08:00:00 9,5 9,1 8,7 8,7 9,3 10,3 9 5 14 8 SW 1019,8 0 0,0
13.11.2018 07:00:00 9,7 8,9 8,7 8,8 9,4 10,3 10 5 15 8 WSW 1019,0 0 0,1
13.11.2018 06:00:00 10,2 9,4 9,0 9,0 9,4 10,3 9 5 16 9 SW 1018,4 0 0,0
13.11.2018 05:00:00 10,5 9,3 9,4 9,1 9,4 10,3 11 6 14 7 SW 1018,7 0 0,0
13.11.2018 04:00:00 10,6 9,1 9,7 9,2 9,5 10,3 10 5 17 9 WSW 1018,2 0 0,0
13.11.2018 03:00:00 11,5 9,5 10,7 9,6 9,4 10,3 12 6 22 12 W 1018,2 0 0,0
13.11.2018 02:00:00 11,9 9,9 11,2 9,6 9,4 10,3 13 7 19 11 W 1017,5 0 0,0
13.11.2018 01:00:00 11,9 9,2 10,5 9,3 9,4 10,3 9 5 25 13 WSW 1016,9 0 0,0
13.11.2018 00:00:00 12,7 9,1 11,8 9,3 9,4 10,3 13 7 23 12 SSW 1016,5 0 0,0
12.11.2018 23:00:00 12,7 8,9 10,9 9,1 9,5 10,2 11 6 32 17 SSW 1015,9 0 0,0
12.11.2018 22:00:00 12,8 8,9 11,5 9,3 9,5 10,2 14 8 32 18 SSW 1015,7 0 0,0
12.11.2018 21:00:00 13,0 9,0 11,7 9,5 9,5 10,2 19 11 36 19 S 1015,0 0 0,0
12.11.2018 20:00:00 13,1 9,1 12,1 9,6 9,5 10,2 20 11 35 19 S 1014,6 0 0,0
12.11.2018 19:00:00 13,1 9,0 12,1 9,4 9,6 10,2 19 10 35 19 S 1014,8 0 0,0
12.11.2018 18:00:00 12,8 8,9 11,6 9,6 9,6 10,2 21 11 34 19 SSE 1014,7 0 0,0
12.11.2018 17:00:00 13,3 9,0 11,9 10,0 9,6 10,2 19 10 29 16 SSE 1014,7 0 0,0
12.11.2018 16:00:00 13,6 9,4 12,9 10,5 9,5 10,2 16 9 32 17 SSE 1014,7 24 0,0
12.11.2018 15:00:00 13,4 9,7 12,7 10,9 9,3 10,2 14 8 26 14 SSE 1014,8 3 0,0
12.11.2018 14:00:00 12,3 9,6 12,2 10,9 9,1 10,2 12 6 23 12 SSE 1015,4 3 0,0
12.11.2018 13:00:00 11,0 9,7 10,7 10,2 9,0 10,2 12 6 20 11 SE 1016,0 0 0,1
12.11.2018 12:00:00 10,6 9,3 10,2 9,8 8,8 10,2 12 7 25 14 SE 1016,8 0 0,0
12.11.2018 11:00:00 10,0 9,2 9,9 9,2 8,7 10,2 13 7 16 9 SE 1017,1 0 0,0
12.11.2018 10:00:00 9,8 8,9 9,4 8,7 8,7 10,2 11 6 16 9 SSE 1017,2 0 0,0
12.11.2018 09:00:00 9,6 8,9 9,2 8,5 8,7 10,2 11 6 16 9 SSE 1017,5 0 0,0
12.11.2018 08:00:00 9,6 8,9 9,0 8,3 8,7 10,2 9 5 13 7 SSE 1016,7 0 0,0
12.11.2018 07:00:00 9,7 9,0 8,6 8,3 8,8 10,2 6 4 16 9 S 1016,5 0 0,0
12.11.2018 06:00:00 9,9 9,2 9,1 8,4 8,8 10,2 11 6 20 11 S 1016,1 0 0,0
12.11.2018 05:00:00 10,2 9,6 9,4 8,6 8,8 10,2 11 6 22 12 S 1015,9 0 0,0

tt = Température de l'air
td = dewpoint
tt 5cm = Température de l'air 5cm
tt -5cm = Température de l'air -5cm
tt -20cm = Température de l'air -20cm
tt -100cm = Température de l'air -100cm
ff = Vitesse du vent
fx = gusts
dd = Direction du vent
ppp = reduced air pressure
sd = Ensoleillement
rr = Quantités de précipitations

stations d'obs. à proximité